createdAt,value
2022-09-03T00:01:59.357Z,16.30
2022-09-03T00:05:12.030Z,16.20
2022-09-03T00:08:23.288Z,16.20
2022-09-03T00:11:45.961Z,16.20
2022-09-03T00:15:03.709Z,16.10
2022-09-03T00:18:16.467Z,16.00
2022-09-03T00:21:24.679Z,15.90
2022-09-03T00:24:29.835Z,15.90
2022-09-03T00:27:33.955Z,15.80
2022-09-03T00:30:35.819Z,15.70
2022-09-03T00:33:38.912Z,15.70
2022-09-03T00:36:42.588Z,15.60
2022-09-03T00:39:44.525Z,15.60
2022-09-03T00:42:58.647Z,15.60
2022-09-03T00:46:03.234Z,15.70
2022-09-03T00:49:14.339Z,15.70
2022-09-03T00:52:53.803Z,15.80
2022-09-03T00:56:07.497Z,15.90
2022-09-03T00:59:19.852Z,16.00
2022-09-03T01:02:28.745Z,16.00
2022-09-03T01:05:45.006Z,16.00
2022-09-03T01:09:00.105Z,16.00
2022-09-03T01:12:13.516Z,16.10
2022-09-03T01:15:33.057Z,16.20
2022-09-03T01:18:37.952Z,16.20
2022-09-03T01:22:20.270Z,16.20
2022-09-03T01:25:48.611Z,16.30
2022-09-03T01:28:56.695Z,16.30
2022-09-03T01:32:28.699Z,16.30
2022-09-03T01:36:01.756Z,16.30
2022-09-03T01:39:07.479Z,16.40
2022-09-03T01:42:23.935Z,16.40
2022-09-03T01:45:51.693Z,16.40
2022-09-03T01:49:06.530Z,16.40
2022-09-03T01:52:21.235Z,16.40
2022-09-03T01:55:28.997Z,16.40
2022-09-03T01:58:39.174Z,16.30
2022-09-03T02:01:46.983Z,16.20
2022-09-03T02:05:02.540Z,16.20
2022-09-03T02:08:08.149Z,16.10
2022-09-03T02:11:10.889Z,16.10
2022-09-03T02:14:13.356Z,16.00
2022-09-03T02:17:15.309Z,16.00
2022-09-03T02:20:20.637Z,15.90
2022-09-03T02:23:24.732Z,15.90
2022-09-03T02:26:29.727Z,15.80
2022-09-03T02:29:31.575Z,15.80
2022-09-03T02:32:33.515Z,15.80
2022-09-03T02:35:35.365Z,15.70
2022-09-03T02:38:37.316Z,15.70
2022-09-03T02:41:39.236Z,15.70
2022-09-03T02:44:44.821Z,15.70
2022-09-03T02:47:46.684Z,15.70
2022-09-03T02:50:48.582Z,15.80
2022-09-03T02:53:50.970Z,15.90
2022-09-03T02:56:53.044Z,15.90
2022-09-03T02:59:55.045Z,16.00
2022-09-03T03:02:56.928Z,16.10
2022-09-03T03:06:00.900Z,16.10
2022-09-03T03:09:05.908Z,16.10
2022-09-03T03:12:09.964Z,16.20
2022-09-03T03:15:11.804Z,16.30
2022-09-03T03:18:14.177Z,16.40
2022-09-03T03:21:16.968Z,16.40
2022-09-03T03:24:18.900Z,16.40
2022-09-03T03:27:20.795Z,16.50
2022-09-03T03:30:23.344Z,16.50
2022-09-03T03:33:25.228Z,16.50
2022-09-03T03:36:28.999Z,16.50
2022-09-03T03:39:30.886Z,16.50
2022-09-03T03:42:34.650Z,16.50
2022-09-03T03:45:36.578Z,16.60
2022-09-03T03:48:38.553Z,16.60
2022-09-03T03:51:40.937Z,16.50
2022-09-03T03:54:42.849Z,16.50
2022-09-03T03:57:44.788Z,16.50
2022-09-03T04:00:50.226Z,16.50
2022-09-03T04:03:52.960Z,16.50
2022-09-03T04:06:58.080Z,16.50
2022-09-03T04:09:59.991Z,16.40
2022-09-03T04:13:01.864Z,16.50
2022-09-03T04:16:08.619Z,16.40
2022-09-03T04:19:10.553Z,16.50
2022-09-03T04:22:12.502Z,16.40
2022-09-03T04:25:14.348Z,16.40
2022-09-03T04:28:16.200Z,16.30
2022-09-03T04:31:19.717Z,16.20
2022-09-03T04:34:21.869Z,16.20
2022-09-03T04:37:23.704Z,16.10
2022-09-03T04:40:25.578Z,16.10
2022-09-03T04:43:28.376Z,16.10
2022-09-03T04:46:33.963Z,16.10
2022-09-03T04:49:36.145Z,16.00
2022-09-03T04:52:38.540Z,16.00
2022-09-03T04:55:40.422Z,15.90
2022-09-03T04:58:44.040Z,15.90
2022-09-03T05:01:46.257Z,15.90
2022-09-03T05:04:48.283Z,15.90
2022-09-03T05:07:50.188Z,15.90
2022-09-03T05:11:01.308Z,15.80
2022-09-03T05:14:03.315Z,15.80
2022-09-03T05:17:05.148Z,15.70
2022-09-03T05:20:10.262Z,15.80
2022-09-03T05:23:12.127Z,15.80
2022-09-03T05:26:18.788Z,15.80
2022-09-03T05:29:22.150Z,15.80
2022-09-03T05:32:25.409Z,15.80
2022-09-03T05:35:30.082Z,15.80
2022-09-03T05:38:32.453Z,15.80
2022-09-03T05:41:34.517Z,15.70
2022-09-03T05:44:37.033Z,15.70
2022-09-03T05:47:39.697Z,15.70
2022-09-03T05:50:41.548Z,15.70
2022-09-03T05:53:48.047Z,15.80
2022-09-03T05:56:49.996Z,15.80
2022-09-03T05:59:52.384Z,15.80
2022-09-03T06:02:54.347Z,15.80
2022-09-03T06:05:56.296Z,15.80
2022-09-03T06:08:59.809Z,15.90
2022-09-03T06:12:03.861Z,15.90
2022-09-03T06:15:07.122Z,15.90
2022-09-03T06:18:09.028Z,16.00
2022-09-03T06:21:10.918Z,16.00
2022-09-03T06:24:20.339Z,16.10
2022-09-03T06:27:23.039Z,16.10
2022-09-03T06:30:26.775Z,16.30
2022-09-03T06:33:32.756Z,16.30
2022-09-03T06:36:34.633Z,16.40
2022-09-03T06:39:36.512Z,16.50
2022-09-03T06:42:45.788Z,16.90
2022-09-03T06:45:58.549Z,17.40
2022-09-03T06:49:00.568Z,17.80
2022-09-03T06:52:02.498Z,18.20
2022-09-03T06:55:04.717Z,18.50
2022-09-03T06:58:06.808Z,18.90
2022-09-03T07:01:13.637Z,19.30
2022-09-03T07:04:20.441Z,19.70
2022-09-03T07:07:22.398Z,19.90
2022-09-03T07:10:24.499Z,20.20
2022-09-03T07:13:26.846Z,20.60
2022-09-03T07:16:30.312Z,21.20
2022-09-03T07:19:32.359Z,22.00
2022-09-03T07:22:34.208Z,22.60
2022-09-03T07:25:36.080Z,23.10
2022-09-03T07:28:38.749Z,23.60
2022-09-03T07:31:41.811Z,24.00
2022-09-03T07:34:43.757Z,24.30
2022-09-03T07:37:45.791Z,24.30
2022-09-03T07:40:48.244Z,24.70
2022-09-03T07:43:50.129Z,25.00
2022-09-03T07:46:52.600Z,25.50
2022-09-03T07:49:54.495Z,26.00
2022-09-03T07:52:58.503Z,26.20
2022-09-03T07:56:08.020Z,26.30
2022-09-03T07:59:09.971Z,26.20
2022-09-03T08:02:11.875Z,26.20
2022-09-03T08:05:13.854Z,26.20
2022-09-03T08:08:17.904Z,26.10
2022-09-03T08:11:21.615Z,26.00
2022-09-03T08:14:23.460Z,25.90
2022-09-03T08:17:25.338Z,25.90
2022-09-03T08:20:28.058Z,26.00
2022-09-03T08:23:29.923Z,25.90
2022-09-03T08:26:33.548Z,25.50
2022-09-03T08:29:35.488Z,25.30
2022-09-03T08:32:38.713Z,25.40
2022-09-03T08:35:40.556Z,25.80
2022-09-03T08:38:43.680Z,26.20
2022-09-03T08:41:51.657Z,26.30
2022-09-03T08:44:58.721Z,26.40
2022-09-03T08:48:10.515Z,26.50
2022-09-03T08:51:12.398Z,26.50
2022-09-03T08:54:14.300Z,26.60
2022-09-03T08:57:16.175Z,26.60
2022-09-03T09:00:18.204Z,26.60
2022-09-03T09:03:57.679Z,26.40
2022-09-03T09:07:11.172Z,26.50
2022-09-03T09:10:25.128Z,26.90
2022-09-03T09:13:30.833Z,27.20
2022-09-03T09:16:48.021Z,27.90
2022-09-03T09:20:33.596Z,28.30
2022-09-03T09:23:46.164Z,28.10
2022-09-03T09:26:48.294Z,28.20
2022-09-03T09:29:51.551Z,28.30
2022-09-03T09:32:55.426Z,28.70
2022-09-03T09:35:58.811Z,28.80
2022-09-03T09:39:09.504Z,28.00
2022-09-03T09:42:12.458Z,27.40
2022-09-03T09:45:14.526Z,27.20
2022-09-03T09:48:37.700Z,27.10
2022-09-03T09:51:39.716Z,26.90
2022-09-03T09:54:42.622Z,26.90
2022-09-03T09:57:44.589Z,26.90
2022-09-03T10:01:13.165Z,27.10
2022-09-03T10:04:32.367Z,27.40
2022-09-03T10:07:34.988Z,27.60
2022-09-03T10:10:40.058Z,27.90
2022-09-03T10:13:44.093Z,28.10
2022-09-03T10:16:49.127Z,28.50
2022-09-03T10:20:27.732Z,28.70
2022-09-03T10:23:29.700Z,29.00
2022-09-03T10:26:33.170Z,29.10
2022-09-03T10:29:35.511Z,28.90
2022-09-03T10:33:10.609Z,28.90
2022-09-03T10:36:22.236Z,29.30
2022-09-03T10:39:33.094Z,28.80
2022-09-03T10:42:45.861Z,28.70
2022-09-03T10:45:59.606Z,28.90
2022-09-03T10:49:19.443Z,29.20
2022-09-03T10:52:31.589Z,29.10
2022-09-03T10:56:04.377Z,28.50
2022-09-03T10:59:09.268Z,27.90
2022-09-03T11:02:17.790Z,27.30
2022-09-03T11:05:25.111Z,26.90
2022-09-03T11:08:46.015Z,26.70
2022-09-03T11:11:51.613Z,26.80
2022-09-03T11:15:03.841Z,26.60
2022-09-03T11:18:43.732Z,26.80
2022-09-03T11:21:45.961Z,26.50
2022-09-03T11:24:55.123Z,26.20
2022-09-03T11:28:19.379Z,26.50
2022-09-03T11:31:25.332Z,26.80
2022-09-03T11:34:44.396Z,26.80
2022-09-03T11:38:02.472Z,26.80
2022-09-03T11:41:35.842Z,26.90
2022-09-03T11:44:44.734Z,27.00
2022-09-03T11:47:53.842Z,27.10
2022-09-03T11:50:55.871Z,26.80
2022-09-03T11:54:04.892Z,26.80
2022-09-03T11:57:14.842Z,26.70
2022-09-03T12:00:21.631Z,26.80
2022-09-03T12:03:42.871Z,26.80
2022-09-03T12:07:26.948Z,26.80
2022-09-03T12:10:56.221Z,26.80
2022-09-03T12:14:17.912Z,27.00
2022-09-03T12:18:09.112Z,27.00
2022-09-03T12:21:11.543Z,26.70
2022-09-03T12:24:14.037Z,26.60
2022-09-03T12:27:24.853Z,26.50
2022-09-03T12:30:27.818Z,26.60
2022-09-03T12:33:29.703Z,26.60
2022-09-03T12:36:52.949Z,27.10
2022-09-03T12:40:11.874Z,27.30
2022-09-03T12:46:40.201Z,27.60
2022-09-03T12:49:43.572Z,27.50
2022-09-03T12:52:49.263Z,27.10
2022-09-03T12:55:57.367Z,26.60
2022-09-03T12:59:02.261Z,26.20
2022-09-03T13:02:12.182Z,26.40
2022-09-03T13:05:20.111Z,26.70
2022-09-03T13:08:32.980Z,26.80
2022-09-03T13:11:37.874Z,27.10
2022-09-03T13:14:47.709Z,27.00
2022-09-03T13:18:01.587Z,27.30
2022-09-03T13:21:44.726Z,27.10
2022-09-03T13:25:11.204Z,27.20
2022-09-03T13:28:26.313Z,27.10
2022-09-03T13:31:35.159Z,26.90
2022-09-03T13:34:42.334Z,27.20
2022-09-03T13:38:09.112Z,27.20
2022-09-03T13:41:36.489Z,26.60
2022-09-03T13:44:45.513Z,26.30
2022-09-03T13:48:21.304Z,26.40
2022-09-03T13:51:29.902Z,26.10
2022-09-03T13:54:49.248Z,25.60
2022-09-03T13:58:02.216Z,25.50
2022-09-03T14:01:11.651Z,25.30
2022-09-03T14:04:18.119Z,25.20
2022-09-03T14:07:25.337Z,25.10
2022-09-03T14:10:50.052Z,24.80
2022-09-03T14:14:06.804Z,24.60
2022-09-03T14:17:19.537Z,24.80
2022-09-03T14:20:22.959Z,24.90
2022-09-03T14:23:39.912Z,24.90
2022-09-03T14:26:54.295Z,25.20
2022-09-03T14:30:07.430Z,25.20
2022-09-03T14:34:00.608Z,25.40
2022-09-03T14:37:23.556Z,25.50
2022-09-03T14:40:49.612Z,25.50
2022-09-03T14:43:57.784Z,25.50
2022-09-03T14:47:27.485Z,25.50
2022-09-03T14:50:34.769Z,25.40
2022-09-03T14:54:08.538Z,25.20
2022-09-03T14:57:31.702Z,24.80
2022-09-03T15:00:53.753Z,24.90
2022-09-03T15:04:04.606Z,25.00
2022-09-03T15:07:25.307Z,25.00
2022-09-03T15:10:46.430Z,24.80
2022-09-03T15:14:00.874Z,24.90
2022-09-03T15:17:21.224Z,24.70
2022-09-03T15:20:32.947Z,24.70
2022-09-03T15:23:47.247Z,24.90
2022-09-03T15:27:10.774Z,24.90
2022-09-03T15:30:19.066Z,24.90
2022-09-03T15:33:36.087Z,24.90
2022-09-03T15:36:40.395Z,24.90
2022-09-03T15:39:44.272Z,24.90
2022-09-03T15:42:47.058Z,24.50
2022-09-03T15:45:49.108Z,24.50
2022-09-03T15:49:02.997Z,24.60
2022-09-03T15:52:24.885Z,24.30
2022-09-03T15:55:39.871Z,24.10
2022-09-03T15:58:49.146Z,23.90
2022-09-03T16:01:58.772Z,23.90
2022-09-03T16:05:21.388Z,23.70
2022-09-03T16:08:42.302Z,23.80
2022-09-03T16:12:04.962Z,23.90
2022-09-03T16:15:44.976Z,24.00
2022-09-03T16:19:07.998Z,24.00
2022-09-03T16:22:17.469Z,24.00
2022-09-03T16:25:46.803Z,24.10
2022-09-03T16:28:58.701Z,23.90
2022-09-03T16:32:16.554Z,23.80
2022-09-03T16:35:27.196Z,23.70
2022-09-03T16:38:39.623Z,23.60
2022-09-03T16:41:47.768Z,23.50
2022-09-03T16:45:20.351Z,23.50
2022-09-03T16:48:26.668Z,23.20
2022-09-03T16:51:56.250Z,23.20
2022-09-03T16:55:26.256Z,23.00
2022-09-03T16:58:40.594Z,22.80
2022-09-03T17:01:42.613Z,22.50
2022-09-03T17:04:54.536Z,22.40
2022-09-03T17:08:07.250Z,22.30
2022-09-03T17:11:31.311Z,22.10
2022-09-03T17:15:01.794Z,22.00
2022-09-03T17:18:13.849Z,21.90
2022-09-03T17:21:18.408Z,21.80
2022-09-03T17:24:26.596Z,21.70
2022-09-03T17:28:28.301Z,21.70
2022-09-03T17:31:55.175Z,21.50
2022-09-03T17:35:06.008Z,21.30
2022-09-03T17:38:18.283Z,21.20
2022-09-03T17:41:47.628Z,21.00
2022-09-03T17:45:11.378Z,20.90
2022-09-03T17:48:51.426Z,20.90
2022-09-03T17:52:05.177Z,20.80
2022-09-03T17:55:13.944Z,20.80
2022-09-03T17:58:35.877Z,20.70
2022-09-03T18:01:38.918Z,20.70
2022-09-03T18:04:55.153Z,20.60
2022-09-03T18:08:12.647Z,20.60
2022-09-03T18:11:41.123Z,20.50
2022-09-03T18:15:08.177Z,20.40
2022-09-03T18:18:27.605Z,20.40
2022-09-03T18:21:49.357Z,20.30
2022-09-03T18:25:15.401Z,20.40
2022-09-03T18:28:36.133Z,20.30
2022-09-03T18:31:56.376Z,20.20
2022-09-03T18:35:16.629Z,20.10
2022-09-03T18:38:40.909Z,20.00
2022-09-03T18:42:38.095Z,19.90
2022-09-03T18:50:22.570Z,19.60
2022-09-03T18:54:01.528Z,19.50
2022-09-03T18:57:27.578Z,19.30
2022-09-03T19:00:49.401Z,19.20
2022-09-03T19:04:24.395Z,19.10
2022-09-03T19:08:14.894Z,19.10
2022-09-03T19:11:41.548Z,19.00
2022-09-03T19:15:12.665Z,19.00
2022-09-03T19:18:45.400Z,19.10
2022-09-03T19:22:11.191Z,19.00
2022-09-03T19:25:33.097Z,18.90
2022-09-03T19:28:55.781Z,18.80
2022-09-03T19:32:20.217Z,18.70
2022-09-03T19:35:42.492Z,18.70
2022-09-03T19:39:29.393Z,18.60
2022-09-03T19:43:17.154Z,18.50
2022-09-03T19:47:04.055Z,18.50
2022-09-03T19:50:43.566Z,18.40
2022-09-03T19:54:04.607Z,18.20
2022-09-03T19:57:25.089Z,18.10
2022-09-03T20:00:45.849Z,17.90
2022-09-03T20:04:06.156Z,17.90
2022-09-03T20:07:27.910Z,17.80
2022-09-03T20:10:29.753Z,17.70
2022-09-03T20:13:51.592Z,17.70
2022-09-03T20:17:05.751Z,17.60
2022-09-03T20:20:29.240Z,17.60
2022-09-03T20:23:36.415Z,17.50
2022-09-03T20:26:44.103Z,17.40
2022-09-03T20:30:04.822Z,17.40
2022-09-03T20:33:24.817Z,17.30
2022-09-03T20:36:55.940Z,17.30
2022-09-03T20:40:19.490Z,17.30
2022-09-03T20:43:47.987Z,17.30
2022-09-03T20:47:08.820Z,17.30
2022-09-03T20:50:43.224Z,17.20
2022-09-03T20:54:08.923Z,17.10
2022-09-03T20:57:28.748Z,17.00
2022-09-03T21:00:45.241Z,17.00
2022-09-03T21:04:08.149Z,17.00
2022-09-03T21:07:28.414Z,16.90
2022-09-03T21:11:01.023Z,16.80
2022-09-03T21:14:16.069Z,16.80
2022-09-03T21:17:45.007Z,16.80
2022-09-03T21:20:51.719Z,16.80
2022-09-03T21:24:07.008Z,16.70
2022-09-03T21:27:13.283Z,16.70
2022-09-03T21:30:17.092Z,16.70
2022-09-03T21:33:50.117Z,16.60
2022-09-03T21:36:52.041Z,16.60
2022-09-03T21:39:56.961Z,16.60
2022-09-03T21:43:22.248Z,16.60
2022-09-03T21:46:28.215Z,16.60
2022-09-03T21:49:34.464Z,16.50
2022-09-03T21:52:39.170Z,16.50
2022-09-03T21:56:03.223Z,16.40
2022-09-03T21:59:39.041Z,16.40
2022-09-03T22:02:43.370Z,16.40
2022-09-03T22:05:51.095Z,16.30
2022-09-03T22:09:02.050Z,16.40
2022-09-03T22:12:12.948Z,16.40
2022-09-03T22:15:14.890Z,16.30
2022-09-03T22:18:28.684Z,16.30
2022-09-03T22:21:59.354Z,16.20
2022-09-03T22:25:05.458Z,16.20
2022-09-03T22:28:22.957Z,16.20
2022-09-03T22:31:46.131Z,16.20
2022-09-03T22:35:00.917Z,16.30
2022-09-03T22:38:25.852Z,16.20
2022-09-03T22:41:46.801Z,16.20
2022-09-03T22:45:26.145Z,16.20
2022-09-03T22:48:47.138Z,16.20
2022-09-03T22:51:58.953Z,16.20
2022-09-03T22:55:23.197Z,16.10
2022-09-03T22:58:28.809Z,16.20
2022-09-03T23:01:56.253Z,16.10
2022-09-03T23:05:16.863Z,16.10
2022-09-03T23:08:31.439Z,16.10
2022-09-03T23:12:01.498Z,16.10
2022-09-03T23:15:09.180Z,16.10
2022-09-03T23:18:19.934Z,16.10
2022-09-03T23:21:27.500Z,16.10
2022-09-03T23:24:35.647Z,16.10
2022-09-03T23:27:47.772Z,16.10
2022-09-03T23:30:50.864Z,16.10
2022-09-03T23:33:54.609Z,16.10
2022-09-03T23:37:33.199Z,16.10
2022-09-03T23:40:49.929Z,16.10
2022-09-03T23:44:10.252Z,16.00
2022-09-03T23:47:34.185Z,16.00
2022-09-03T23:50:46.244Z,15.90
2022-09-03T23:54:20.169Z,15.90
2022-09-03T23:57:35.296Z,15.90
